createdAt,value
2016-05-28T00:00:39.454Z,16.33
2016-05-28T00:01:39.473Z,16.34
2016-05-28T00:02:39.507Z,16.34
2016-05-28T00:03:39.572Z,16.35
2016-05-28T00:04:39.496Z,16.41
2016-05-28T00:05:39.640Z,16.4
2016-05-28T00:06:39.705Z,16.37
2016-05-28T00:07:39.567Z,16.38
2016-05-28T00:08:39.774Z,16.37
2016-05-28T00:09:39.823Z,16.31
2016-05-28T00:10:39.903Z,16.3
2016-05-28T00:11:39.735Z,16.4
2016-05-28T00:12:39.924Z,16.38
2016-05-28T00:13:39.990Z,16.37
2016-05-28T00:14:40.040Z,16.25
2016-05-28T00:15:39.964Z,16.38
2016-05-28T00:16:40.107Z,16.3
2016-05-28T00:17:40.141Z,16.31
2016-05-28T00:18:40.190Z,16.3
2016-05-28T00:19:40.225Z,16.26
2016-05-28T00:20:40.103Z,16.18
2016-05-28T00:21:40.417Z,16.16
2016-05-28T00:22:40.186Z,16.23
2016-05-28T00:23:40.220Z,16.18
2016-05-28T00:24:40.411Z,16.14
2016-05-28T00:25:40.459Z,16.2
2016-05-28T00:26:40.508Z,16.23
2016-05-28T00:27:40.528Z,16.14
2016-05-28T00:28:40.608Z,16.22
2016-05-28T00:29:40.502Z,16.18
2016-05-28T00:30:40.661Z,16.22
2016-05-28T00:31:40.694Z,16.25
2016-05-28T00:32:40.760Z,16.25
2016-05-28T00:33:40.810Z,16.33
2016-05-28T00:34:40.858Z,16.31
2016-05-28T00:35:40.877Z,16.33
2016-05-28T00:36:40.896Z,16.3
2016-05-28T00:37:40.946Z,16.41
2016-05-28T00:38:40.994Z,16.35
2016-05-28T00:39:41.013Z,16.34
2016-05-28T00:40:41.124Z,16.31
2016-05-28T00:41:41.096Z,16.37
2016-05-28T00:42:41.162Z,16.41
2016-05-28T00:43:41.196Z,16.42
2016-05-28T00:44:41.245Z,16.27
2016-05-28T00:45:41.263Z,16.3
2016-05-28T00:46:41.360Z,16.3
2016-05-28T00:47:41.379Z,16.3
2016-05-28T00:48:41.396Z,16.33
2016-05-28T00:49:41.556Z,16.33
2016-05-28T00:50:41.542Z,16.27
2016-05-28T00:51:41.561Z,16.35
2016-05-28T00:52:41.564Z,16.27
2016-05-28T00:53:41.597Z,16.33
2016-05-28T00:54:41.522Z,16.31
2016-05-28T00:55:41.681Z,16.38
2016-05-28T00:56:41.730Z,16.3
2016-05-28T00:57:41.609Z,16.2
2016-05-28T00:58:41.845Z,16.2
2016-05-28T00:59:41.691Z,16.23
2016-05-28T01:00:41.726Z,16.22
2016-05-28T01:01:41.994Z,16.12
2016-05-28T01:02:42.090Z,16.16
2016-05-28T01:03:42.030Z,16.06
2016-05-28T01:04:42.080Z,16.07
2016-05-28T01:05:41.974Z,16.11
2016-05-28T01:06:42.132Z,16.07
2016-05-28T01:07:42.182Z,15.97
2016-05-28T01:08:42.232Z,16.04
2016-05-28T01:09:42.375Z,16.04
2016-05-28T01:10:42.394Z,15.97
2016-05-28T01:11:42.317Z,15.99
2016-05-28T01:12:42.585Z,15.97
2016-05-28T01:13:42.432Z,15.94
2016-05-28T01:14:42.310Z,15.96
2016-05-28T01:15:42.531Z,15.92
2016-05-28T01:16:42.394Z,15.88
2016-05-28T01:17:42.568Z,15.93
2016-05-28T01:18:42.634Z,15.97
2016-05-28T01:19:42.698Z,15.94
2016-05-28T01:20:42.717Z,16
2016-05-28T01:21:42.751Z,15.89
2016-05-28T01:22:42.784Z,15.93
2016-05-28T01:23:42.865Z,15.96
2016-05-28T01:24:42.868Z,15.97
2016-05-28T01:25:42.933Z,15.88
2016-05-28T01:26:42.795Z,15.92
2016-05-28T01:27:42.875Z,15.89
2016-05-28T01:28:43.036Z,15.85
2016-05-28T01:29:43.086Z,15.88
2016-05-28T01:30:43.166Z,15.81
2016-05-28T01:31:43.075Z,15.88
2016-05-28T01:32:43.202Z,15.85
2016-05-28T01:33:43.267Z,15.85
2016-05-28T01:34:43.599Z,15.88
2016-05-28T01:35:43.319Z,15.88
2016-05-28T01:36:43.354Z,15.88
2016-05-28T01:37:43.403Z,15.93
2016-05-28T01:38:43.437Z,15.89
2016-05-28T01:39:43.471Z,15.86
2016-05-28T01:40:43.551Z,15.94
2016-05-28T01:41:43.571Z,15.94
2016-05-28T01:42:43.604Z,15.92
2016-05-28T01:43:43.654Z,15.88
2016-05-28T01:44:43.719Z,15.89
2016-05-28T01:45:43.721Z,15.97
2016-05-28T01:46:43.631Z,16
2016-05-28T01:47:43.821Z,15.99
2016-05-28T01:48:43.886Z,15.99
2016-05-28T01:49:43.904Z,15.96
2016-05-28T01:50:43.923Z,15.94
2016-05-28T01:51:43.987Z,15.84
2016-05-28T01:52:44.022Z,15.89
2016-05-28T01:53:44.039Z,15.85
2016-05-28T01:54:44.105Z,15.88
2016-05-28T01:55:44.186Z,15.96
2016-05-28T01:56:44.173Z,15.86
2016-05-28T01:57:44.207Z,15.94
2016-05-28T01:58:44.288Z,15.96
2016-05-28T01:59:44.134Z,15.86
2016-05-28T02:00:44.340Z,15.89
2016-05-28T02:01:44.389Z,15.92
2016-05-28T02:02:44.439Z,15.84
2016-05-28T02:03:44.472Z,15.85
2016-05-28T02:04:45.350Z,15.88
2016-05-28T02:05:44.541Z,15.88
2016-05-28T02:06:44.622Z,15.93
2016-05-28T02:07:44.625Z,15.93
2016-05-28T02:08:44.658Z,15.88
2016-05-28T02:09:44.724Z,15.99
2016-05-28T02:10:44.774Z,16.01
2016-05-28T02:11:44.777Z,15.96
2016-05-28T02:12:44.826Z,16.01
2016-05-28T02:13:44.859Z,15.96
2016-05-28T02:14:44.893Z,15.99
2016-05-28T02:15:44.959Z,15.96
2016-05-28T02:16:45.008Z,16.06
2016-05-28T02:17:45.042Z,16
2016-05-28T02:18:44.920Z,16
2016-05-28T02:19:44.953Z,16.07
2016-05-28T02:20:45.144Z,16.06
2016-05-28T02:21:45.193Z,16.09
2016-05-28T02:22:45.227Z,16
2016-05-28T02:23:45.277Z,16
2016-05-28T02:24:45.373Z,16.04
2016-05-28T02:25:45.345Z,16.07
2016-05-28T02:26:45.395Z,15.99
2016-05-28T02:27:45.412Z,15.97
2016-05-28T02:28:45.322Z,15.89
2016-05-28T02:29:45.512Z,16.06
2016-05-28T02:30:45.577Z,15.97
2016-05-28T02:31:45.267Z,16.09
2016-05-28T02:32:45.630Z,16.09
2016-05-28T02:33:45.678Z,15.96
2016-05-28T02:34:46.056Z,16
2016-05-28T02:35:45.746Z,16
2016-05-28T02:36:45.796Z,16
2016-05-28T02:37:45.878Z,16.01
2016-05-28T02:38:45.880Z,16
2016-05-28T02:39:45.930Z,16.09
2016-05-28T02:40:45.963Z,16
2016-05-28T02:41:46.013Z,16.09
2016-05-28T02:42:46.077Z,16
2016-05-28T02:43:46.081Z,16.06
2016-05-28T02:44:46.115Z,15.99
2016-05-28T02:45:46.195Z,16
2016-05-28T02:46:46.214Z,16.04
2016-05-28T02:47:46.232Z,15.99
2016-05-28T02:48:46.282Z,16.03
2016-05-28T02:49:46.034Z,15.97
2016-05-28T02:50:46.193Z,15.97
2016-05-28T02:51:46.415Z,15.92
2016-05-28T02:52:46.340Z,15.97
2016-05-28T02:53:46.499Z,15.96
2016-05-28T02:54:46.531Z,15.97
2016-05-28T02:55:46.597Z,15.96
2016-05-28T02:56:46.475Z,16.14
2016-05-28T02:57:46.650Z,16.01
2016-05-28T02:58:46.683Z,16.01
2016-05-28T02:59:46.748Z,16
2016-05-28T03:00:46.798Z,15.97
2016-05-28T03:01:46.816Z,16.09
2016-05-28T03:02:46.867Z,16
2016-05-28T03:03:46.978Z,16
2016-05-28T03:04:48.137Z,16.01
2016-05-28T03:05:46.983Z,16.01
2016-05-28T03:06:47.064Z,15.97
2016-05-28T03:07:47.066Z,16.06
2016-05-28T03:08:47.133Z,15.99
2016-05-28T03:09:47.135Z,16.07
2016-05-28T03:10:47.216Z,15.96
2016-05-28T03:11:47.250Z,15.93
2016-05-28T03:12:47.253Z,16.06
2016-05-28T03:13:47.302Z,16.07
2016-05-28T03:14:47.383Z,16.06
2016-05-28T03:15:47.401Z,16.03
2016-05-28T03:16:47.451Z,16.03
2016-05-28T03:17:47.468Z,15.93
2016-05-28T03:18:47.519Z,16.04
2016-05-28T03:19:47.912Z,16
2016-05-28T03:20:47.587Z,16.07
2016-05-28T03:21:47.636Z,16.06
2016-05-28T03:22:47.732Z,16
2016-05-28T03:23:47.704Z,15.94
2016-05-28T03:24:47.754Z,15.94
2016-05-28T03:25:47.850Z,15.99
2016-05-28T03:26:47.681Z,16.06
2016-05-28T03:27:47.855Z,16.01
2016-05-28T03:28:47.920Z,16
2016-05-28T03:29:47.829Z,15.96
2016-05-28T03:30:47.989Z,16.06
2016-05-28T03:31:48.069Z,16.04
2016-05-28T03:32:48.103Z,16.01
2016-05-28T03:33:48.137Z,15.97
2016-05-28T03:34:48.421Z,16
2016-05-28T03:35:48.064Z,15.96
2016-05-28T03:36:48.302Z,16
2016-05-28T03:37:48.304Z,16.12
2016-05-28T03:38:48.322Z,16
2016-05-28T03:39:48.371Z,16.07
2016-05-28T03:40:48.296Z,16.14
2016-05-28T03:41:48.441Z,16.04
2016-05-28T03:42:48.505Z,16.06
2016-05-28T03:43:48.523Z,16.06
2016-05-28T03:44:48.417Z,16.06
2016-05-28T03:45:48.607Z,16.04
2016-05-28T03:46:48.688Z,16.11
2016-05-28T03:47:48.581Z,16.12
2016-05-28T03:48:48.724Z,16.16
2016-05-28T03:49:48.774Z,16.22
2016-05-28T03:50:48.808Z,16.14
2016-05-28T03:51:48.857Z,16.12
2016-05-28T03:52:48.938Z,16.16
2016-05-28T03:53:48.941Z,16.16
2016-05-28T03:54:49.022Z,16.23
2016-05-28T03:55:49.024Z,16.3
2016-05-28T03:56:49.073Z,16.2
2016-05-28T03:57:49.123Z,16.18
2016-05-28T03:58:49.173Z,16.18
2016-05-28T03:59:49.175Z,16.22
2016-05-28T04:00:49.241Z,16.31
2016-05-28T04:01:49.275Z,16.15
2016-05-28T04:02:49.309Z,16.2
2016-05-28T04:03:49.062Z,16.2
2016-05-28T04:04:49.408Z,16.18
2016-05-28T04:05:49.286Z,16.15
2016-05-28T04:06:49.461Z,16.14
2016-05-28T04:07:49.353Z,16.15
2016-05-28T04:08:49.558Z,16.12
2016-05-28T04:09:49.625Z,16.22
2016-05-28T04:10:49.627Z,16.2
2016-05-28T04:11:49.692Z,16.2
2016-05-28T04:12:49.742Z,16.18
2016-05-28T04:13:49.776Z,16.18
2016-05-28T04:14:49.794Z,16.22
2016-05-28T04:15:49.844Z,16.18
2016-05-28T04:16:49.738Z,16.2
2016-05-28T04:17:49.927Z,16.31
2016-05-28T04:18:49.946Z,16.16
2016-05-28T04:19:50.043Z,16.3
2016-05-28T04:20:49.888Z,16.25
2016-05-28T04:21:50.079Z,16.23
2016-05-28T04:22:50.143Z,16.27
2016-05-28T04:23:50.193Z,16.27
2016-05-28T04:24:50.227Z,16.27
2016-05-28T04:25:50.105Z,16.23
2016-05-28T04:26:50.311Z,16.23
2016-05-28T04:27:50.376Z,16.27
2016-05-28T04:28:50.362Z,16.33
2016-05-28T04:29:50.412Z,16.33
2016-05-28T04:30:50.447Z,16.31
2016-05-28T04:31:50.527Z,16.31
2016-05-28T04:32:50.545Z,16.31
2016-05-28T04:33:50.564Z,16.3
2016-05-28T04:34:50.894Z,16.35
2016-05-28T04:35:50.522Z,16.35
2016-05-28T04:36:50.697Z,16.38
2016-05-28T04:37:50.747Z,16.37
2016-05-28T04:38:50.672Z,16.41
2016-05-28T04:39:50.814Z,16.34
2016-05-28T04:40:50.880Z,16.34
2016-05-28T04:41:50.914Z,16.42
2016-05-28T04:42:50.963Z,16.44
2016-05-28T04:43:50.997Z,16.38
2016-05-28T04:44:51.031Z,16.37
2016-05-28T04:45:51.066Z,16.37
2016-05-28T04:46:51.130Z,16.42
2016-05-28T04:47:51.149Z,16.4
2016-05-28T04:48:51.183Z,16.38
2016-05-28T04:49:51.654Z,16.49
2016-05-28T04:50:51.266Z,16.53
2016-05-28T04:51:51.316Z,16.55
2016-05-28T04:52:51.381Z,16.52
2016-05-28T04:53:51.259Z,16.53
2016-05-28T04:54:51.418Z,16.63
2016-05-28T04:55:51.467Z,16.6
2016-05-28T04:56:51.548Z,16.59
2016-05-28T04:57:51.550Z,16.62
2016-05-28T04:58:51.600Z,16.73
2016-05-28T04:59:51.634Z,16.7
2016-05-28T05:00:51.731Z,16.67
2016-05-28T05:01:51.733Z,16.7
2016-05-28T05:02:51.751Z,16.68
2016-05-28T05:03:51.848Z,16.71
2016-05-28T05:04:52.256Z,16.71
2016-05-28T05:05:51.728Z,16.71
2016-05-28T05:06:51.933Z,16.78
2016-05-28T05:07:51.999Z,16.71
2016-05-28T05:08:52.059Z,16.73
2016-05-28T05:09:52.101Z,16.7
2016-05-28T05:10:52.144Z,16.73
2016-05-28T05:11:52.218Z,16.73
2016-05-28T05:12:52.292Z,16.63
2016-05-28T05:13:52.329Z,16.63
2016-05-28T05:14:52.419Z,16.67
2016-05-28T05:15:52.462Z,16.6
2016-05-28T05:16:52.473Z,16.58
2016-05-28T05:17:52.547Z,16.53
2016-05-28T05:18:52.448Z,16.5
2016-05-28T05:19:52.703Z,16.48
2016-05-28T05:20:52.520Z,16.5
2016-05-28T05:21:52.558Z,16.52
2016-05-28T05:22:52.783Z,16.52
2016-05-28T05:23:52.803Z,16.49
2016-05-28T05:24:52.823Z,16.44
2016-05-28T05:25:52.920Z,16.41
2016-05-28T05:26:52.768Z,16.53
2016-05-28T05:27:52.803Z,16.53
2016-05-28T05:28:53.056Z,16.5
2016-05-28T05:29:53.059Z,16.5
2016-05-28T05:30:53.078Z,16.52
2016-05-28T05:31:53.129Z,16.55
2016-05-28T05:32:53.116Z,16.52
2016-05-28T05:33:53.260Z,16.55
2016-05-28T05:34:53.121Z,16.59
2016-05-28T05:35:53.279Z,16.7
2016-05-28T05:36:53.190Z,16.71
2016-05-28T05:37:53.363Z,16.71
2016-05-28T05:38:53.429Z,16.75
2016-05-28T05:39:53.509Z,16.75
2016-05-28T05:40:53.528Z,16.9
2016-05-28T05:41:53.562Z,16.95
2016-05-28T05:42:53.596Z,16.88
2016-05-28T05:43:53.692Z,16.9
2016-05-28T05:44:53.664Z,16.98
2016-05-28T05:45:53.698Z,17.06
2016-05-28T05:46:53.763Z,17.06
2016-05-28T05:47:53.797Z,17.1
2016-05-28T05:48:53.830Z,17.11
2016-05-28T05:49:54.662Z,17.25
2016-05-28T05:50:53.992Z,17.15
2016-05-28T05:51:53.995Z,17.29
2016-05-28T05:52:53.983Z,17.29
2016-05-28T05:53:53.891Z,17.36
2016-05-28T05:54:54.113Z,17.4
2016-05-28T05:55:54.130Z,17.36
2016-05-28T05:56:54.181Z,17.46
2016-05-28T05:57:54.214Z,17.47
2016-05-28T05:58:54.092Z,17.46
2016-05-28T05:59:54.298Z,17.46
2016-05-28T06:00:54.316Z,17.41
2016-05-28T06:01:54.460Z,17.4
2016-05-28T06:02:54.415Z,17.41
2016-05-28T06:03:54.466Z,17.43
2016-05-28T06:04:54.561Z,17.55
2016-05-28T06:05:54.580Z,17.54
2016-05-28T06:06:54.582Z,17.64
2016-05-28T06:07:54.631Z,17.69
2016-05-28T06:08:54.681Z,17.7
2016-05-28T06:09:54.700Z,17.81
2016-05-28T06:10:54.734Z,17.89
2016-05-28T06:11:54.767Z,17.94
2016-05-28T06:12:54.879Z,18.06
2016-05-28T06:13:54.867Z,18.09
2016-05-28T06:14:54.932Z,18.15
2016-05-28T06:15:54.669Z,18.12
2016-05-28T06:16:55.000Z,18.13
2016-05-28T06:17:55.034Z,18.21
2016-05-28T06:18:55.084Z,18.17
2016-05-28T06:19:54.976Z,18.28
2016-05-28T06:20:55.026Z,18.24
2016-05-28T06:21:55.029Z,18.36
2016-05-28T06:22:55.234Z,18.39
2016-05-28T06:23:55.300Z,18.43
2016-05-28T06:24:55.178Z,18.5
2016-05-28T06:25:55.383Z,18.64
2016-05-28T06:26:55.433Z,18.62
2016-05-28T06:27:55.467Z,18.77
2016-05-28T06:28:55.329Z,18.7
2016-05-28T06:29:55.535Z,18.82
2016-05-28T06:30:55.444Z,18.99
2016-05-28T06:31:55.618Z,19.05
2016-05-28T06:32:55.527Z,19.11
2016-05-28T06:33:55.718Z,19.21
2016-05-28T06:34:56.705Z,19.28
2016-05-28T06:35:55.785Z,19.17
2016-05-28T06:36:55.819Z,19.35
2016-05-28T06:37:55.899Z,19.39
2016-05-28T06:38:55.949Z,19.28
2016-05-28T06:39:55.968Z,19.32
2016-05-28T06:40:56.002Z,19.25
2016-05-28T06:41:56.082Z,19.38
2016-05-28T06:42:56.101Z,19.38
2016-05-28T06:43:56.151Z,19.46
2016-05-28T06:44:56.215Z,19.51
2016-05-28T06:45:56.234Z,19.5
2016-05-28T06:46:56.252Z,19.55
2016-05-28T06:47:56.287Z,19.53
2016-05-28T06:48:56.367Z,19.39
2016-05-28T06:49:56.245Z,19.38
2016-05-28T06:50:56.434Z,19.42
2016-05-28T06:51:56.531Z,19.53
2016-05-28T06:52:56.519Z,19.51
2016-05-28T06:53:56.567Z,19.53
2016-05-28T06:54:56.603Z,19.65
2016-05-28T06:55:56.464Z,19.69
2016-05-28T06:56:56.685Z,19.73
2016-05-28T06:57:56.736Z,19.9
2016-05-28T06:58:56.848Z,19.87
2016-05-28T06:59:56.663Z,19.78
2016-05-28T07:00:56.836Z,19.87
2016-05-28T07:01:56.886Z,19.72
2016-05-28T07:02:56.952Z,19.8
2016-05-28T07:03:56.969Z,19.8
2016-05-28T07:04:57.129Z,19.83
2016-05-28T07:05:57.054Z,19.9
2016-05-28T07:06:57.149Z,19.84
2016-05-28T07:07:57.152Z,19.95
2016-05-28T07:08:57.202Z,19.95
2016-05-28T07:09:57.283Z,19.95
2016-05-28T07:10:57.285Z,19.97
2016-05-28T07:11:57.179Z,19.87
2016-05-28T07:12:57.400Z,19.97
2016-05-28T07:13:57.465Z,19.9
2016-05-28T07:14:57.468Z,20.05
2016-05-28T07:15:57.564Z,19.94
2016-05-28T07:16:57.615Z,19.94
2016-05-28T07:17:57.461Z,19.97
2016-05-28T07:18:57.464Z,19.94
2016-05-28T07:19:57.544Z,20
2016-05-28T07:20:57.734Z,19.97
2016-05-28T07:21:57.752Z,19.94
2016-05-28T07:22:57.803Z,19.94
2016-05-28T07:23:57.883Z,19.86
2016-05-28T07:24:57.886Z,19.95
2016-05-28T07:25:57.936Z,19.91
2016-05-28T07:26:57.969Z,19.98
2016-05-28T07:27:58.034Z,19.94
2016-05-28T07:28:58.083Z,20.05
2016-05-28T07:29:58.087Z,20.09
2016-05-28T07:30:59.621Z,20.24
2016-05-28T07:31:58.294Z,20.25
2016-05-28T07:32:58.252Z,20.28
2016-05-28T07:33:58.270Z,20.42
2016-05-28T07:34:58.850Z,20.49
2016-05-28T07:35:58.368Z,20.53
2016-05-28T07:36:58.418Z,20.53
2016-05-28T07:37:58.296Z,20.59
2016-05-28T07:38:58.501Z,20.65
2016-05-28T07:39:58.582Z,20.8
2016-05-28T07:40:58.585Z,20.74
2016-05-28T07:41:58.604Z,20.86
2016-05-28T07:42:58.543Z,20.84
2016-05-28T07:43:58.718Z,20.84
2016-05-28T07:44:58.784Z,20.74
2016-05-28T07:45:58.832Z,20.61
2016-05-28T07:46:58.851Z,20.59
2016-05-28T07:47:58.900Z,20.42
2016-05-28T07:48:58.950Z,20.38
2016-05-28T07:49:58.906Z,20.31
2016-05-28T07:50:59.050Z,20.35
2016-05-28T07:51:59.067Z,20.33
2016-05-28T07:52:59.086Z,20.43
2016-05-28T07:53:59.183Z,20.41
2016-05-28T07:54:59.200Z,20.43
2016-05-28T07:55:59.219Z,20.35
2016-05-28T07:56:59.300Z,20.35
2016-05-28T07:57:59.350Z,20.38
2016-05-28T07:58:59.368Z,20.46
2016-05-28T07:59:59.230Z,20.31
2016-05-28T08:00:59.466Z,20.33
2016-05-28T08:01:59.533Z,20.39
2016-05-28T08:02:59.535Z,20.38
2016-05-28T08:03:59.569Z,20.33
2016-05-28T08:05:01.321Z,20.35
2016-05-28T08:05:59.652Z,20.49
2016-05-28T08:06:59.546Z,20.42
2016-05-28T08:07:59.751Z,20.39
2016-05-28T08:08:59.660Z,20.46
2016-05-28T08:09:59.835Z,20.51
2016-05-28T08:10:59.869Z,20.54
2016-05-28T08:11:59.981Z,20.53
2016-05-28T08:12:59.984Z,20.56
2016-05-28T08:13:59.862Z,20.59
2016-05-28T08:15:00.020Z,20.65
2016-05-28T08:16:00.117Z,20.61
2016-05-28T08:17:00.182Z,20.56
2016-05-28T08:18:00.168Z,20.58
2016-05-28T08:19:00.234Z,20.59
2016-05-28T08:20:00.253Z,20.68
2016-05-28T08:21:00.286Z,20.71
2016-05-28T08:22:00.368Z,20.79
2016-05-28T08:23:00.386Z,20.81
2016-05-28T08:24:00.372Z,20.74
2016-05-28T08:25:00.469Z,20.84
2016-05-28T08:26:00.519Z,20.95
2016-05-28T08:27:00.583Z,21.01
2016-05-28T08:28:00.603Z,21.06
2016-05-28T08:29:03.058Z,21.06
2016-05-28T08:30:00.686Z,21.09
2016-05-28T08:31:00.720Z,21.17
2016-05-28T08:32:00.769Z,21.24
2016-05-28T08:33:00.819Z,21.26
2016-05-28T08:34:03.589Z,21.14
2016-05-28T08:35:01.433Z,21.21
2016-05-28T08:36:00.967Z,21.2
2016-05-28T08:37:00.985Z,21.24
2016-05-28T08:38:01.066Z,21.2
2016-05-28T08:39:04.588Z,21.23
2016-05-28T08:40:01.166Z,21.3
2016-05-28T08:41:01.013Z,21.23
2016-05-28T08:42:01.218Z,21.3
2016-05-28T08:43:01.283Z,21.32
2016-05-28T08:44:03.363Z,21.34
2016-05-28T08:45:01.335Z,21.36
2016-05-28T08:46:01.369Z,21.36
2016-05-28T08:47:01.435Z,21.3
2016-05-28T08:48:01.484Z,21.46
2016-05-28T08:49:01.346Z,21.48
2016-05-28T08:50:01.427Z,21.59
2016-05-28T08:51:01.602Z,21.63
2016-05-28T08:52:01.479Z,21.6
2016-05-28T08:53:01.669Z,21.61
2016-05-28T08:54:01.720Z,21.79
2016-05-28T08:55:01.768Z,21.79
2016-05-28T08:56:01.803Z,21.74
2016-05-28T08:57:01.712Z,21.9
2016-05-28T08:58:01.745Z,21.97
2016-05-28T08:59:01.935Z,22.06
2016-05-28T09:00:01.828Z,22.2
2016-05-28T09:01:02.050Z,22.28
2016-05-28T09:02:02.116Z,22.39
2016-05-28T09:03:01.977Z,22.64
2016-05-28T09:04:02.153Z,22.6
2016-05-28T09:05:02.217Z,22.62
2016-05-28T09:06:02.252Z,22.82
2016-05-28T09:07:02.285Z,22.96
2016-05-28T09:08:02.335Z,22.97
2016-05-28T09:09:02.415Z,23.05
2016-05-28T09:10:02.433Z,23.23
2016-05-28T09:11:02.483Z,23.34
2016-05-28T09:12:02.549Z,23.42
2016-05-28T09:13:02.566Z,23.55
2016-05-28T09:14:02.616Z,23.61
2016-05-28T09:15:02.651Z,23.76
2016-05-28T09:16:02.747Z,23.87
2016-05-28T09:17:02.734Z,23.97
2016-05-28T09:18:02.799Z,24.01
2016-05-28T09:19:02.880Z,24.14
2016-05-28T09:20:02.898Z,24.22
2016-05-28T09:21:02.917Z,24.22
2016-05-28T09:22:02.965Z,24.19
2016-05-28T09:23:03.079Z,24.22
2016-05-28T09:24:03.065Z,24.31
2016-05-28T09:25:03.209Z,24.42
2016-05-28T09:26:03.165Z,24.47
2016-05-28T09:27:03.246Z,24.45
2016-05-28T09:28:03.076Z,24.57
2016-05-28T09:29:03.297Z,24.59
2016-05-28T09:30:03.409Z,24.67
2016-05-28T09:31:03.381Z,24.69
2016-05-28T09:32:03.431Z,24.73
2016-05-28T09:33:03.340Z,24.94
2016-05-28T09:34:03.591Z,24.85
2016-05-28T09:35:03.422Z,24.94
2016-05-28T09:36:03.644Z,24.94
2016-05-28T09:37:03.678Z,24.98
2016-05-28T09:38:03.743Z,24.97
2016-05-28T09:39:03.621Z,24.87
2016-05-28T09:40:03.639Z,24.9
2016-05-28T09:41:03.891Z,24.88
2016-05-28T09:42:03.614Z,24.83
2016-05-28T09:43:03.960Z,24.92
2016-05-28T09:44:03.994Z,24.94
2016-05-28T09:45:03.902Z,24.9
2016-05-28T09:46:03.905Z,25.01
2016-05-28T09:47:04.143Z,25.06
2016-05-28T09:48:04.161Z,25.1
2016-05-28T09:49:04.211Z,25.09
2016-05-28T09:50:04.276Z,25.16
2016-05-28T09:51:04.293Z,25.13
2016-05-28T09:52:04.390Z,25.31
2016-05-28T09:53:04.393Z,25.34
2016-05-28T09:54:04.301Z,25.38
2016-05-28T09:55:04.539Z,25.35
2016-05-28T09:56:05.011Z,25.37
2016-05-28T09:57:04.607Z,25.37
2016-05-28T09:58:04.656Z,25.5
2016-05-28T09:59:04.737Z,25.5
2016-05-28T10:00:04.725Z,25.61
2016-05-28T10:01:04.853Z,25.75
2016-05-28T10:02:04.683Z,25.79
2016-05-28T10:03:04.763Z,25.77
2016-05-28T10:04:04.907Z,25.82
2016-05-28T10:05:06.254Z,25.98
2016-05-28T10:06:04.850Z,26.04
2016-05-28T10:07:04.946Z,26.02
2016-05-28T10:08:05.106Z,26.12
2016-05-28T10:09:05.139Z,26.27
2016-05-28T10:10:05.220Z,26.25
2016-05-28T10:11:05.255Z,26.29
2016-05-28T10:12:05.305Z,26.39
2016-05-28T10:13:05.369Z,26.36
2016-05-28T10:14:05.402Z,26.44
2016-05-28T10:15:05.437Z,26.44
2016-05-28T10:16:05.330Z,26.4
2016-05-28T10:17:05.583Z,26.37
2016-05-28T10:18:05.571Z,26.35
2016-05-28T10:19:05.619Z,26.37
2016-05-28T10:20:06.138Z,26.32
2016-05-28T10:21:05.718Z,26.35
2016-05-28T10:22:05.752Z,26.42
2016-05-28T10:23:05.818Z,26.58
2016-05-28T10:24:05.899Z,26.59
2016-05-28T10:25:05.948Z,26.72
2016-05-28T10:26:05.841Z,26.8
2016-05-28T10:27:06.001Z,26.95
2016-05-28T10:28:06.097Z,27.01
2016-05-28T10:29:05.990Z,27.13
2016-05-28T10:30:06.164Z,27.16
2016-05-28T10:31:06.198Z,27.24
2016-05-28T10:32:06.248Z,27.33
2016-05-28T10:33:06.314Z,27.46
2016-05-28T10:34:06.347Z,27.46
2016-05-28T10:35:06.834Z,27.38
2016-05-28T10:36:06.431Z,27.43
2016-05-28T10:37:06.324Z,27.43
2016-05-28T10:38:06.530Z,27.57
2016-05-28T10:39:06.579Z,27.61
2016-05-28T10:40:06.660Z,27.77
2016-05-28T10:41:06.663Z,27.84
2016-05-28T10:42:06.603Z,27.88
2016-05-28T10:43:06.793Z,28.09
2016-05-28T10:44:06.811Z,28.32
2016-05-28T10:45:06.752Z,28.46
2016-05-28T10:46:06.816Z,28.65
2016-05-28T10:47:07.023Z,28.81
2016-05-28T10:48:06.869Z,29.11
2016-05-28T10:49:07.153Z,29.41
2016-05-28T10:50:07.046Z,29.78
2016-05-28T10:51:07.205Z,30.02
2016-05-28T10:52:07.255Z,30.19
2016-05-28T10:53:07.210Z,30.16
2016-05-28T10:54:07.370Z,30.52
2016-05-28T10:55:08.279Z,31.17
2016-05-28T10:56:07.485Z,31.84
2016-05-28T10:57:07.550Z,32.44
2016-05-28T10:58:07.412Z,32.52
2016-05-28T10:59:07.634Z,32.49
2016-05-28T11:00:07.683Z,32.76
2016-05-28T11:01:07.607Z,32.89
2016-05-28T11:02:07.828Z,33.55
2016-05-28T11:03:07.848Z,34.46
2016-05-28T11:04:07.897Z,35.4
2016-05-28T11:05:08.665Z,36.38
2016-05-28T11:06:08.527Z,37.29
2016-05-28T11:07:08.077Z,38.05
2016-05-28T11:08:08.142Z,38.68
2016-05-28T11:09:08.191Z,39.14
2016-05-28T11:10:08.256Z,39.14
2016-05-28T11:11:08.306Z,39.14
2016-05-28T11:12:08.355Z,39.49
2016-05-28T11:13:08.468Z,39.77
2016-05-28T11:14:08.471Z,39.46
2016-05-28T11:15:08.552Z,38.76
2016-05-28T11:16:08.601Z,38.12
2016-05-28T11:17:08.525Z,37.31
2016-05-28T11:18:08.716Z,36.56
2016-05-28T11:19:08.828Z,35.84
2016-05-28T11:20:09.224Z,35.2
2016-05-28T11:21:08.943Z,34.96
2016-05-28T11:22:08.930Z,35.15
2016-05-28T11:23:08.855Z,35.08
2016-05-28T11:24:09.043Z,34.91
2016-05-28T11:25:09.093Z,34.57
2016-05-28T11:26:09.143Z,34.29
2016-05-28T11:27:09.240Z,33.87
2016-05-28T11:28:09.273Z,33.53
2016-05-28T11:29:09.323Z,33.26
2016-05-28T11:30:09.389Z,33.34
2016-05-28T11:31:09.454Z,34.04
2016-05-28T11:32:09.472Z,34.77
2016-05-28T11:33:09.568Z,35.64
2016-05-28T11:34:09.587Z,36.58
2016-05-28T11:35:10.106Z,37.42
2016-05-28T11:36:09.733Z,38.2
2016-05-28T11:37:09.672Z,38.98
2016-05-28T11:38:09.816Z,39.76
2016-05-28T11:39:09.881Z,40.52
2016-05-28T11:40:09.947Z,41.02
2016-05-28T11:41:09.871Z,41.77
2016-05-28T11:42:10.047Z,42.19
2016-05-28T11:43:10.111Z,42.62
2016-05-28T11:44:10.035Z,43.02
2016-05-28T11:45:09.960Z,43.49
2016-05-28T11:46:10.135Z,43.73
2016-05-28T11:47:10.044Z,44.01
2016-05-28T11:48:10.438Z,43.98
2016-05-28T11:49:10.502Z,43.48
2016-05-28T11:50:11.192Z,42.75
2016-05-28T11:51:10.586Z,42.03
2016-05-28T11:52:10.666Z,41.1
2016-05-28T11:53:10.732Z,40.49
2016-05-28T11:54:10.843Z,40.14
2016-05-28T11:55:10.846Z,40.21
2016-05-28T11:56:10.740Z,40.56
2016-05-28T11:57:10.993Z,40.87
2016-05-28T11:58:11.042Z,41.44
2016-05-28T11:59:11.107Z,41.85
2016-05-28T12:00:11.156Z,42.34
2016-05-28T12:01:11.254Z,42.57
2016-05-28T12:02:11.115Z,42.95
2016-05-28T12:03:11.353Z,43.27
2016-05-28T12:04:11.401Z,43.44
2016-05-28T12:05:12.468Z,43.61
2016-05-28T12:06:11.204Z,43.73
2016-05-28T12:07:11.581Z,43.73
2016-05-28T12:08:11.679Z,43.6
2016-05-28T12:09:11.696Z,43.22
2016-05-28T12:10:11.778Z,42.51
2016-05-28T12:11:11.828Z,41.68
2016-05-28T12:12:11.892Z,40.71
2016-05-28T12:13:11.941Z,40
2016-05-28T12:14:12.054Z,39.22
2016-05-28T12:15:12.088Z,38.87
2016-05-28T12:16:12.169Z,38.68
2016-05-28T12:17:12.186Z,38.85
2016-05-28T12:18:12.236Z,39.06
2016-05-28T12:19:12.302Z,39.32
2016-05-28T12:20:12.242Z,39.62
2016-05-28T12:21:12.416Z,39.74
2016-05-28T12:22:12.529Z,39.74
2016-05-28T12:23:12.546Z,39.64
2016-05-28T12:24:12.596Z,39.3
2016-05-28T12:25:12.849Z,38.78
2016-05-28T12:26:12.711Z,38.46
2016-05-28T12:27:12.776Z,37.9
2016-05-28T12:28:12.826Z,37.47
2016-05-28T12:29:12.937Z,36.94
2016-05-28T12:30:12.941Z,36.52
2016-05-28T12:31:13.006Z,36.21
2016-05-28T12:32:13.086Z,36.04
2016-05-28T12:33:13.120Z,35.99
2016-05-28T12:34:13.170Z,36.26
2016-05-28T12:35:12.970Z,36.8
2016-05-28T12:36:13.284Z,37.42
2016-05-28T12:37:13.351Z,38.15
2016-05-28T12:38:13.259Z,38.71
2016-05-28T12:39:13.481Z,39.52
2016-05-28T12:40:13.515Z,40.18
2016-05-28T12:41:13.595Z,40.33
2016-05-28T12:42:13.614Z,40.81
2016-05-28T12:43:13.600Z,41.08
2016-05-28T12:44:13.744Z,41.47
2016-05-28T12:45:13.809Z,41.81
2016-05-28T12:46:13.905Z,42.15
2016-05-28T12:47:13.940Z,42.35
2016-05-28T12:48:14.005Z,42.66
2016-05-28T12:49:14.054Z,43
2016-05-28T12:50:13.963Z,43.33
2016-05-28T12:51:14.028Z,43.49
2016-05-28T12:52:14.077Z,43.61
2016-05-28T12:53:14.283Z,43.67
2016-05-28T12:54:14.380Z,43.68
2016-05-28T12:55:14.413Z,43.53
2016-05-28T12:56:14.495Z,43.3
2016-05-28T12:57:14.591Z,43.11
2016-05-28T12:58:14.609Z,43.1